createdAt,value
2019-04-11T00:00:11.007Z,101652.17
2019-04-11T00:02:38.581Z,101657.28
2019-04-11T00:05:06.415Z,101619.03
2019-04-11T00:07:33.170Z,101661.98
2019-04-11T00:09:59.961Z,101671.22
2019-04-11T00:12:28.665Z,101663.53
2019-04-11T00:14:55.984Z,101668.88
2019-04-11T00:17:22.964Z,101661.78
2019-04-11T00:19:49.650Z,101662.20
2019-04-11T00:22:17.387Z,101667.40
2019-04-11T00:24:45.197Z,101670.23
2019-04-11T00:27:12.952Z,101675.44
2019-04-11T00:29:40.709Z,101678.66
2019-04-11T00:32:09.293Z,101675.69
2019-04-11T00:34:37.238Z,101680.64
2019-04-11T00:37:05.149Z,101679.20
2019-04-11T00:39:32.034Z,101686.73
2019-04-11T00:41:59.154Z,101687.05
2019-04-11T00:44:25.850Z,101684.66
2019-04-11T00:46:52.943Z,101687.73
2019-04-11T00:49:19.617Z,101689.86
2019-04-11T00:51:46.339Z,101684.06
2019-04-11T00:54:14.197Z,101688.38
2019-04-11T00:56:42.270Z,101691.28
2019-04-11T00:59:09.862Z,101683.50
2019-04-11T01:01:36.937Z,101690.45
2019-04-11T01:04:03.960Z,101688.20
2019-04-11T01:06:30.739Z,101693.80
2019-04-11T01:08:57.504Z,101697.63
2019-04-11T01:11:24.214Z,101699.66
2019-04-11T01:13:54.638Z,101702.55
2019-04-11T01:16:43.026Z,101697.63
2019-04-11T01:19:10.825Z,101701.86
2019-04-11T01:21:37.692Z,101706.92
2019-04-11T01:24:04.491Z,101705.41
2019-04-11T01:26:31.573Z,101701.17
2019-04-11T01:28:58.786Z,101706.80
2019-04-11T01:31:27.752Z,101706.88
2019-04-11T01:33:54.418Z,101710.15
2019-04-11T01:36:22.726Z,101713.12
2019-04-11T01:38:53.441Z,101713.80
2019-04-11T01:41:21.236Z,101715.02
2019-04-11T01:43:57.307Z,101719.67
2019-04-11T01:46:16.723Z,101714.15
2019-04-11T01:48:54.161Z,101720.19
2019-04-11T01:51:21.239Z,101712.96
2019-04-11T01:53:48.918Z,101723.59
2019-04-11T01:56:16.892Z,101726.03
2019-04-11T01:58:43.793Z,101718.55
2019-04-11T02:01:37.020Z,101722.28
2019-04-11T02:04:13.996Z,101724.13
2019-04-11T02:06:40.847Z,101721.75
2019-04-11T02:09:11.602Z,101728.84
2019-04-11T02:11:39.459Z,101733.58
2019-04-11T02:14:12.460Z,101734.73
2019-04-11T02:16:34.935Z,101735.73
2019-04-11T02:19:01.717Z,101733.66
2019-04-11T02:21:29.492Z,101739.96
2019-04-11T02:24:01.756Z,101733.64
2019-04-11T02:26:31.397Z,101733.42
2019-04-11T02:28:59.360Z,101736.52
2019-04-11T02:31:26.483Z,101736.27
2019-04-11T02:33:55.241Z,101742.52
2019-04-11T02:36:22.518Z,101743.15
2019-04-11T02:38:54.155Z,101755.77
2019-04-11T02:41:18.944Z,101752.17
2019-04-11T02:43:46.833Z,101756.55
2019-04-11T02:46:24.591Z,101752.81
2019-04-11T02:48:42.777Z,101757.97
2019-04-11T02:51:09.930Z,101762.09
2019-04-11T02:53:36.946Z,101773.50
2019-04-11T02:56:06.011Z,101766.59
2019-04-11T02:58:34.621Z,101768.13
2019-04-11T03:01:05.113Z,101766.48
2019-04-11T03:03:32.023Z,101765.55
2019-04-11T03:06:00.024Z,101770.53
2019-04-11T03:08:31.943Z,101772.40
2019-04-11T03:10:58.115Z,101774.88
2019-04-11T03:13:27.244Z,101775.67
2019-04-11T03:16:07.476Z,101780.91
2019-04-11T03:18:40.706Z,101777.45
2019-04-11T03:20:56.734Z,101772.98
2019-04-11T03:23:21.212Z,101776.20
2019-04-11T03:25:49.328Z,101780.52
2019-04-11T03:28:21.094Z,101781.27
2019-04-11T03:31:06.959Z,101787.33
2019-04-11T03:34:09.071Z,101783.56
2019-04-11T03:38:38.597Z,101786.61
2019-04-11T03:40:57.854Z,101781.20
2019-04-11T03:43:24.301Z,101787.05
2019-04-11T03:46:01.310Z,101787.09
2019-04-11T03:48:22.183Z,101790.00
2019-04-11T03:50:38.189Z,101791.66
2019-04-11T03:53:06.488Z,101796.17
2019-04-11T03:55:32.889Z,101789.16
2019-04-11T03:58:01.279Z,101791.42
2019-04-11T04:00:33.586Z,101795.30
2019-04-11T04:02:58.076Z,101799.54
2019-04-11T04:05:28.569Z,101796.81
2019-04-11T04:07:57.566Z,101792.39
2019-04-11T04:10:25.848Z,101789.42
2019-04-11T04:12:53.654Z,101796.71
2019-04-11T04:15:53.994Z,101801.27
2019-04-11T04:18:36.250Z,101806.59
2019-04-11T04:21:24.733Z,101806.41
2019-04-11T04:23:54.115Z,101810.46
2019-04-11T04:26:20.776Z,101809.69
2019-04-11T04:28:49.009Z,101814.48
2019-04-11T04:31:16.315Z,101816.32
2019-04-11T04:33:45.310Z,101821.50
2019-04-11T04:36:13.877Z,101816.27
2019-04-11T04:38:41.410Z,101818.28
2019-04-11T04:41:22.488Z,101824.51
2019-04-11T04:43:41.156Z,101824.05
2019-04-11T04:46:25.116Z,101824.02
2019-04-11T04:48:37.857Z,101832.63
2019-04-11T04:51:09.004Z,101834.36
2019-04-11T04:53:35.007Z,101837.75
2019-04-11T04:56:02.716Z,101829.28
2019-04-11T04:58:31.555Z,101834.97
2019-04-11T05:00:58.688Z,101834.11
2019-04-11T05:03:26.769Z,101831.13
2019-04-11T05:05:55.288Z,101840.11
2019-04-11T05:08:22.874Z,101845.61
2019-04-11T05:10:51.152Z,101842.22
2019-04-11T05:13:19.440Z,101842.91
2019-04-11T05:15:46.360Z,101842.06
2019-04-11T05:18:15.567Z,101851.89
2019-04-11T05:20:41.726Z,101845.41
2019-04-11T05:23:08.501Z,101848.14
2019-04-11T05:25:35.270Z,101857.95
2019-04-11T05:28:02.308Z,101853.04
2019-04-11T05:30:29.399Z,101862.62
2019-04-11T05:32:56.289Z,101860.73
2019-04-11T05:35:22.954Z,101860.91
2019-04-11T05:37:49.745Z,101858.24
2019-04-11T05:40:16.920Z,101865.97
2019-04-11T05:42:44.901Z,101864.03
2019-04-11T05:45:19.129Z,101866.61
2019-04-11T05:47:40.771Z,101863.00
2019-04-11T05:50:20.116Z,101870.56
2019-04-11T05:52:46.830Z,101867.17
2019-04-11T05:55:13.895Z,101869.30
2019-04-11T05:57:43.097Z,101868.52
2019-04-11T06:00:15.934Z,101868.99
2019-04-11T06:02:45.727Z,101864.07
2019-04-11T06:05:17.831Z,101874.62
2019-04-11T06:07:52.909Z,101873.95
2019-04-11T06:10:24.086Z,101874.73
2019-04-11T06:13:07.863Z,101881.12
2019-04-11T06:15:40.831Z,101883.99
2019-04-11T06:18:33.083Z,101891.67
2019-04-11T06:21:03.958Z,101886.48
2019-04-11T06:23:56.266Z,101894.37
2019-04-11T06:26:51.843Z,101895.45
2019-04-11T06:29:26.433Z,101899.72
2019-04-11T06:32:05.818Z,101903.05
2019-04-11T06:34:35.531Z,101899.34
2019-04-11T06:37:21.325Z,101906.00
2019-04-11T06:39:57.727Z,101904.01
2019-04-11T06:42:52.383Z,101902.53
2019-04-11T06:45:37.780Z,101905.78
2019-04-11T06:48:23.145Z,101908.33
2019-04-11T06:51:11.849Z,101904.72
2019-04-11T06:53:42.224Z,101902.78
2019-04-11T06:56:27.272Z,101909.72
2019-04-11T06:59:16.393Z,101913.34
2019-04-11T07:01:45.416Z,101914.03
2019-04-11T07:04:44.096Z,101921.57
2019-04-11T07:07:11.459Z,101925.00
2019-04-11T07:09:45.002Z,101922.02
2019-04-11T07:12:28.705Z,101926.00
2019-04-11T07:15:04.494Z,101922.02
2019-04-11T07:17:49.707Z,101919.17
2019-04-11T07:20:43.480Z,101929.07
2019-04-11T07:23:28.712Z,101932.88
2019-04-11T07:26:04.498Z,101937.46
2019-04-11T07:28:50.931Z,101933.79
2019-04-11T07:31:37.921Z,101939.75
2019-04-11T07:34:31.291Z,101942.82
2019-04-11T07:37:14.916Z,101943.52
2019-04-11T07:40:03.143Z,101941.48
2019-04-11T07:42:59.439Z,101945.55
2019-04-11T07:45:30.237Z,101949.29
2019-04-11T07:48:06.792Z,101946.19
2019-04-11T07:50:35.407Z,101948.17
2019-04-11T07:53:04.875Z,101954.89
2019-04-11T07:55:32.335Z,101909.28
2019-04-11T07:58:19.473Z,101958.72
2019-04-11T08:01:14.899Z,101956.08
2019-04-11T08:04:01.664Z,101956.79
2019-04-11T08:06:52.130Z,101958.22
2019-04-11T08:09:33.440Z,101944.38
2019-04-11T08:12:15.013Z,101960.02
2019-04-11T08:15:01.944Z,101968.45
2019-04-11T08:17:37.583Z,101964.52
2019-04-11T08:20:21.424Z,101960.64
2019-04-11T08:22:51.612Z,101961.83
2019-04-11T08:25:41.971Z,101962.40
2019-04-11T08:28:13.643Z,101964.80
2019-04-11T08:31:07.682Z,101964.52
2019-04-11T08:33:38.406Z,101959.78
2019-04-11T08:36:27.295Z,101961.00
2019-04-11T08:39:00.640Z,101958.63
2019-04-11T08:41:49.640Z,101962.84
2019-04-11T08:44:41.846Z,101962.30
2019-04-11T08:47:14.254Z,101961.12
2019-04-11T08:49:57.032Z,101961.93
2019-04-11T08:53:04.838Z,101964.22
2019-04-11T08:55:57.154Z,101974.78
2019-04-11T08:58:36.972Z,101967.25
2019-04-11T09:01:05.496Z,101975.80
2019-04-11T09:04:02.070Z,101979.33
2019-04-11T09:06:28.427Z,101973.83
2019-04-11T09:09:18.819Z,101981.61
2019-04-11T09:11:51.089Z,101972.47
2019-04-11T09:14:48.455Z,101978.97
2019-04-11T09:17:23.237Z,101980.66
2019-04-11T09:20:09.869Z,101978.09
2019-04-11T09:22:44.937Z,101974.78
2019-04-11T09:25:35.483Z,101974.47
2019-04-11T09:28:07.360Z,101976.55
2019-04-11T09:30:51.223Z,101978.45
2019-04-11T09:33:39.632Z,101974.49
2019-04-11T09:36:29.019Z,101971.94
2019-04-11T09:38:59.068Z,101978.91
2019-04-11T09:41:47.176Z,101975.50
2019-04-11T09:44:14.858Z,101978.05
2019-04-11T09:47:01.429Z,101977.34
2019-04-11T09:49:36.098Z,101972.20
2019-04-11T09:52:12.814Z,101974.25
2019-04-11T09:55:17.084Z,101980.97
2019-04-11T09:57:48.244Z,101984.98
2019-04-11T10:00:47.459Z,101979.86
2019-04-11T10:03:23.490Z,101982.28
2019-04-11T10:06:13.975Z,101981.41
2019-04-11T10:08:43.675Z,101983.61
2019-04-11T10:11:34.503Z,101982.72
2019-04-11T10:14:05.193Z,101983.87
2019-04-11T10:16:50.629Z,101991.53
2019-04-11T10:19:24.338Z,101987.13
2019-04-11T10:21:56.788Z,101984.88
2019-04-11T10:24:34.695Z,101986.84
2019-04-11T10:27:12.791Z,101986.22
2019-04-11T10:32:41.714Z,101986.97
2019-04-11T10:35:22.030Z,101982.67
2019-04-11T10:37:49.792Z,101988.20
2019-04-11T10:40:39.898Z,101988.97
2019-04-11T10:43:07.715Z,101985.22
2019-04-11T10:46:00.817Z,101987.55
2019-04-11T10:48:35.582Z,101985.87
2019-04-11T10:51:21.189Z,101983.27
2019-04-11T10:53:49.425Z,101986.75
2019-04-11T10:56:24.986Z,101986.34
2019-04-11T10:58:53.761Z,101986.59
2019-04-11T11:01:38.780Z,101985.16
2019-04-11T11:04:26.196Z,101990.09
2019-04-11T11:06:57.104Z,101982.71
2019-04-11T11:09:52.599Z,101982.27
2019-04-11T11:12:37.113Z,101982.52
2019-04-11T11:15:10.025Z,101989.02
2019-04-11T11:18:45.904Z,101986.02
2019-04-11T11:21:07.400Z,101992.36
2019-04-11T11:23:54.790Z,101988.34
2019-04-11T11:26:27.891Z,101989.01
2019-04-11T11:29:15.816Z,101998.41
2019-04-11T11:31:59.315Z,101996.85
2019-04-11T11:35:29.740Z,102003.35
2019-04-11T11:38:09.903Z,102001.97
2019-04-11T11:41:08.218Z,102013.70
2019-04-11T11:43:35.501Z,102008.55
2019-04-11T11:46:26.820Z,102009.00
2019-04-11T11:50:03.314Z,102016.81
2019-04-11T11:52:55.337Z,102015.70
2019-04-11T11:55:25.663Z,102021.66
2019-04-11T12:01:03.670Z,102019.45
2019-04-11T12:08:22.308Z,102020.34
2019-04-11T12:11:03.879Z,102021.42
2019-04-11T12:13:55.721Z,102015.39
2019-04-11T12:16:43.854Z,102013.73
2019-04-11T12:19:22.305Z,102015.20
2019-04-11T12:21:51.674Z,102007.39
2019-04-11T12:24:40.616Z,102006.01
2019-04-11T12:27:24.535Z,102009.33
2019-04-11T12:30:21.005Z,102008.56
2019-04-11T12:32:55.110Z,102011.08
2019-04-11T12:35:46.560Z,102009.25
2019-04-11T12:38:24.500Z,102008.58
2019-04-11T12:41:09.141Z,102000.88
2019-04-11T12:43:57.427Z,101997.69
2019-04-11T12:46:42.887Z,102004.23
2019-04-11T12:49:23.528Z,102001.08
2019-04-11T12:52:25.592Z,102006.37
2019-04-11T12:54:52.870Z,101998.30
2019-04-11T12:57:38.070Z,102001.73
2019-04-11T13:00:30.678Z,101998.44
2019-04-11T13:03:15.818Z,102004.63
2019-04-11T13:05:44.358Z,102005.41
2019-04-11T13:08:36.897Z,101995.95
2019-04-11T13:11:04.835Z,101999.02
2019-04-11T13:13:37.090Z,102000.65
2019-04-11T13:16:12.991Z,102000.06
2019-04-11T13:18:59.470Z,101999.48
2019-04-11T13:21:30.462Z,101996.46
2019-04-11T13:24:15.532Z,101995.59
2019-04-11T13:27:05.239Z,102000.79
2019-04-11T13:30:03.967Z,101989.89
2019-04-11T13:32:43.767Z,101994.22
2019-04-11T13:36:21.512Z,101996.98
2019-04-11T13:39:38.673Z,102004.97
2019-04-11T13:42:53.360Z,102001.73
2019-04-11T13:45:22.805Z,102000.48
2019-04-11T13:50:56.644Z,102003.14
2019-04-11T13:53:45.775Z,101999.67
2019-04-11T13:56:13.100Z,102005.20
2019-04-11T13:58:58.146Z,102010.35
2019-04-11T14:01:24.930Z,102004.67
2019-04-11T14:04:01.388Z,102000.12
2019-04-11T14:06:38.243Z,101995.33
2019-04-11T14:09:34.560Z,101994.55
2019-04-11T14:12:05.068Z,101987.13
2019-04-11T14:14:52.157Z,101996.17
2019-04-11T14:17:22.539Z,101994.17
2019-04-11T14:20:11.612Z,101992.49
2019-04-11T14:23:14.702Z,101993.41
2019-04-11T14:26:15.444Z,101982.06
2019-04-11T14:28:48.604Z,101987.77
2019-04-11T14:34:49.341Z,101990.33
2019-04-11T14:37:38.256Z,101990.91
2019-04-11T14:40:10.921Z,101987.73
2019-04-11T14:42:59.998Z,101984.08
2019-04-11T14:49:30.733Z,101977.01
2019-04-11T14:52:26.949Z,101987.59
2019-04-11T14:54:56.555Z,101976.30
2019-04-11T14:57:43.250Z,101978.50
2019-04-11T15:00:44.117Z,101979.77
2019-04-11T15:03:30.766Z,101982.92
2019-04-11T15:06:23.213Z,101975.42
2019-04-11T15:09:01.362Z,101977.80
2019-04-11T15:12:02.083Z,101977.81
2019-04-11T15:14:51.584Z,101980.14
2019-04-11T15:17:24.304Z,101979.45
2019-04-11T15:19:55.744Z,101984.80
2019-04-11T15:22:43.344Z,101982.45
2019-04-11T15:25:37.863Z,101982.27
2019-04-11T15:28:23.965Z,101984.07
2019-04-11T15:31:06.477Z,101988.09
2019-04-11T15:33:55.531Z,101981.30
2019-04-11T15:40:18.008Z,101976.23
2019-04-11T15:43:11.861Z,101976.13
2019-04-11T15:45:51.935Z,101979.49
2019-04-11T15:48:57.182Z,101970.73
2019-04-11T15:51:48.202Z,101970.22
2019-04-11T15:54:44.648Z,101971.42
2019-04-11T15:57:29.260Z,101967.08
2019-04-11T16:00:20.001Z,101967.59
2019-04-11T16:03:02.969Z,101970.20
2019-04-11T16:05:49.597Z,101970.13
2019-04-11T16:08:52.087Z,101969.70
2019-04-11T16:11:53.918Z,101967.08
2019-04-11T16:14:25.996Z,101966.88
2019-04-11T16:17:15.101Z,101970.31
2019-04-11T16:19:47.848Z,101968.84
2019-04-11T16:22:35.228Z,101976.62
2019-04-11T16:25:07.519Z,101986.69
2019-04-11T16:28:00.216Z,101979.70
2019-04-11T16:30:28.454Z,101985.84
2019-04-11T16:33:07.970Z,101984.70
2019-04-11T16:35:48.424Z,101984.30
2019-04-11T16:38:19.043Z,101982.04
2019-04-11T16:41:18.875Z,101980.69
2019-04-11T16:43:54.673Z,101982.72
2019-04-11T16:46:39.212Z,101983.20
2019-04-11T16:49:06.793Z,101984.64
2019-04-11T16:51:33.468Z,101983.69
2019-04-11T16:54:00.351Z,101979.34
2019-04-11T16:56:26.998Z,101981.84
2019-04-11T16:58:53.723Z,101986.55
2019-04-11T17:01:20.726Z,101991.78
2019-04-11T17:03:49.034Z,101992.80
2019-04-11T17:06:33.912Z,101990.25
2019-04-11T17:09:05.770Z,101994.61
2019-04-11T17:11:32.741Z,101998.58
2019-04-11T17:13:59.697Z,102004.50
2019-04-11T17:16:30.053Z,101999.31
2019-04-11T17:18:55.110Z,102005.49
2019-04-11T17:21:23.191Z,102004.17
2019-04-11T17:23:51.365Z,102007.21
2019-04-11T17:26:18.054Z,102009.84
2019-04-11T17:28:44.975Z,102007.58
2019-04-11T17:31:11.818Z,102007.21
2019-04-11T17:33:38.515Z,102012.97
2019-04-11T17:36:05.370Z,102007.53
2019-04-11T17:38:32.470Z,102012.87
2019-04-11T17:40:59.256Z,102014.20
2019-04-11T17:43:25.955Z,102011.00
2019-04-11T17:45:56.907Z,102017.50
2019-04-11T17:48:21.656Z,102017.45
2019-04-11T17:50:48.754Z,102029.54
2019-04-11T17:53:15.411Z,102030.73
2019-04-11T17:55:42.123Z,102034.44
2019-04-11T17:58:09.813Z,102029.50
2019-04-11T18:00:39.694Z,102034.30
2019-04-11T18:03:06.711Z,102040.43
2019-04-11T18:05:33.758Z,102036.38
2019-04-11T18:08:00.662Z,102047.44
2019-04-11T18:10:27.374Z,102047.77
2019-04-11T18:12:56.301Z,102051.23
2019-04-11T18:15:23.095Z,102047.72
2019-04-11T18:17:49.830Z,102055.78
2019-04-11T18:20:17.014Z,102057.72
2019-04-11T18:22:46.301Z,102055.53
2019-04-11T18:25:12.723Z,102058.72
2019-04-11T18:27:39.512Z,102059.45
2019-04-11T18:30:09.372Z,102064.88
2019-04-11T18:32:36.010Z,102067.30
2019-04-11T18:35:03.269Z,102064.00
2019-04-11T18:37:32.101Z,102074.11
2019-04-11T18:39:59.495Z,102078.17
2019-04-11T18:42:26.289Z,102077.14
2019-04-11T18:44:53.405Z,102071.11
2019-04-11T18:47:20.195Z,102083.98
2019-04-11T18:49:47.021Z,102082.00
2019-04-11T18:52:19.716Z,102082.98
2019-04-11T18:54:42.462Z,102086.72
2019-04-11T18:57:09.167Z,102082.65
2019-04-11T18:59:36.069Z,102086.53
2019-04-11T19:02:03.337Z,102085.77
2019-04-11T19:04:32.736Z,102090.27
2019-04-11T19:06:59.708Z,102084.89
2019-04-11T19:09:27.050Z,102092.57
2019-04-11T19:11:54.091Z,102095.36
2019-04-11T19:14:20.892Z,102094.20
2019-04-11T19:16:47.665Z,102100.95
2019-04-11T19:19:17.879Z,102096.21
2019-04-11T19:21:43.178Z,102100.67
2019-04-11T19:24:12.935Z,102104.22
2019-04-11T19:26:38.863Z,102099.03
2019-04-11T19:29:06.276Z,102099.43
2019-04-11T19:31:33.141Z,102100.30
2019-04-11T19:34:04.437Z,102107.38
2019-04-11T19:36:28.542Z,102104.34
2019-04-11T19:38:55.345Z,102105.44
2019-04-11T19:41:22.029Z,102107.30
2019-04-11T19:43:49.818Z,102104.92
2019-04-11T19:46:17.994Z,102106.50
2019-04-11T19:48:45.395Z,102110.38
2019-04-11T19:51:12.085Z,102108.02
2019-04-11T19:53:39.019Z,102105.19
2019-04-11T19:56:23.451Z,102108.41
2019-04-11T19:58:50.484Z,102107.53
2019-04-11T20:01:17.602Z,102112.95
2019-04-11T20:03:44.311Z,102114.71
2019-04-11T20:06:13.196Z,102116.30
2019-04-11T20:08:39.745Z,102113.69
2019-04-11T20:11:06.928Z,102119.45
2019-04-11T20:13:33.631Z,102116.84
2019-04-11T20:16:00.751Z,102114.35
2019-04-11T20:18:28.843Z,102111.29
2019-04-11T20:20:55.570Z,102111.02
2019-04-11T20:23:22.245Z,102107.53
2019-04-11T20:25:50.014Z,102116.34
2019-04-11T20:28:19.700Z,102121.48
2019-04-11T20:30:45.821Z,102118.17
2019-04-11T20:33:13.787Z,102117.83
2019-04-11T20:35:40.683Z,102119.98
2019-04-11T20:38:08.606Z,102115.16
2019-04-11T20:40:35.286Z,102114.87
2019-04-11T20:43:03.186Z,102114.84
2019-04-11T20:45:32.149Z,102117.64
2019-04-11T20:48:00.392Z,102121.56
2019-04-11T20:50:27.692Z,102123.73
2019-04-11T20:52:54.398Z,102119.84
2019-04-11T20:55:21.093Z,102114.53
2019-04-11T20:57:48.295Z,102119.82
2019-04-11T21:00:15.070Z,102114.30
2019-04-11T21:02:42.239Z,102112.72
2019-04-11T21:05:09.302Z,102113.06
2019-04-11T21:07:39.091Z,102118.55
2019-04-11T21:10:05.209Z,102110.03
2019-04-11T21:12:32.133Z,102117.36
2019-04-11T21:14:59.311Z,102114.48
2019-04-11T21:17:26.235Z,102118.40
2019-04-11T21:19:53.227Z,102120.94
2019-04-11T21:22:23.971Z,102119.72
2019-04-11T21:24:49.162Z,102124.15
2019-04-11T21:27:15.871Z,102120.58
2019-04-11T21:29:42.641Z,102119.84
2019-04-11T21:32:09.310Z,102125.20
2019-04-11T21:34:37.134Z,102122.02
2019-04-11T21:37:03.935Z,102123.84
2019-04-11T21:39:30.652Z,102123.49
2019-04-11T21:41:58.271Z,102122.42
2019-04-11T21:44:25.265Z,102125.77
2019-04-11T21:46:52.289Z,102123.16
2019-04-11T21:49:19.026Z,102123.33
2019-04-11T21:51:45.760Z,102128.51
2019-04-11T21:54:14.866Z,102123.58
2019-04-11T21:56:41.608Z,102127.48
2019-04-11T21:59:08.385Z,102123.66
2019-04-11T22:01:37.514Z,102118.10
2019-04-11T22:04:04.792Z,102124.84
2019-04-11T22:06:31.477Z,102123.41
2019-04-11T22:08:59.239Z,102118.81
2019-04-11T22:11:26.418Z,102120.98
2019-04-11T22:13:53.374Z,102127.59
2019-04-11T22:16:20.281Z,102123.66
2019-04-11T22:18:46.980Z,102130.01
2019-04-11T22:21:15.513Z,102127.52
2019-04-11T22:23:49.023Z,102131.77
2019-04-11T22:26:12.346Z,102123.84
2019-04-11T22:28:39.350Z,102132.20
2019-04-11T22:31:06.617Z,102130.59
2019-04-11T22:33:50.694Z,102130.95
2019-04-11T22:36:18.185Z,102133.29
2019-04-11T22:38:45.370Z,102133.11
2019-04-11T22:41:31.730Z,102137.56
2019-04-11T22:43:58.417Z,102132.78
2019-04-11T22:46:25.103Z,102137.59
2019-04-11T22:48:51.850Z,102141.32
2019-04-11T22:51:18.527Z,102141.32
2019-04-11T22:53:45.241Z,102137.97
2019-04-11T22:56:12.377Z,102136.88
2019-04-11T22:58:39.274Z,102141.41
2019-04-11T23:01:07.266Z,102149.64
2019-04-11T23:03:39.287Z,102148.67
2019-04-11T23:06:06.063Z,102149.53
2019-04-11T23:08:32.862Z,102147.78
2019-04-11T23:10:59.671Z,102146.44
2019-04-11T23:13:26.343Z,102151.62
2019-04-11T23:15:53.134Z,102144.56
2019-04-11T23:18:20.973Z,102145.13
2019-04-11T23:20:47.767Z,102145.47
2019-04-11T23:23:14.596Z,102147.97
2019-04-11T23:25:41.302Z,102149.58
2019-04-11T23:28:08.026Z,102149.95
2019-04-11T23:30:34.802Z,102140.94
2019-04-11T23:33:01.522Z,102145.53
2019-04-11T23:35:29.078Z,102143.93
2019-04-11T23:37:55.869Z,102151.39
2019-04-11T23:40:22.680Z,102143.59
2019-04-11T23:42:50.108Z,102149.08
2019-04-11T23:45:20.917Z,102148.75
2019-04-11T23:47:48.439Z,102145.36
2019-04-11T23:50:15.343Z,102144.12
2019-04-11T23:52:42.038Z,102142.71
2019-04-11T23:55:08.894Z,102144.84
2019-04-11T23:57:35.586Z,102143.59
